createdAt,value
2023-04-21T00:00:01.818Z,43.80
2023-04-21T00:01:01.833Z,39.10
2023-04-21T00:02:01.850Z,41.40
2023-04-21T00:03:02.014Z,39.40
2023-04-21T00:04:01.930Z,37.80
2023-04-21T00:05:01.839Z,42.40
2023-04-21T00:06:02.689Z,41.40
2023-04-21T00:07:01.707Z,43.00
2023-04-21T00:08:01.751Z,44.00
2023-04-21T00:09:01.706Z,43.50
2023-04-21T00:10:01.796Z,41.20
2023-04-21T00:11:01.726Z,37.80
2023-04-21T00:12:01.806Z,37.70
2023-04-21T00:13:01.702Z,44.90
2023-04-21T00:14:01.660Z,40.10
2023-04-21T00:15:01.714Z,37.70
2023-04-21T00:16:01.808Z,38.00
2023-04-21T00:17:01.676Z,40.00
2023-04-21T00:18:01.683Z,44.30
2023-04-21T00:19:02.623Z,41.30
2023-04-21T00:20:01.608Z,41.10
2023-04-21T00:21:01.631Z,42.80
2023-04-21T00:22:01.606Z,40.60
2023-04-21T00:23:01.585Z,39.70
2023-04-21T00:24:01.564Z,39.80
2023-04-21T00:25:01.602Z,40.00
2023-04-21T00:26:01.586Z,39.20
2023-04-21T00:27:01.896Z,42.40
2023-04-21T00:28:01.589Z,38.20
2023-04-21T00:29:01.997Z,40.00
2023-04-21T00:30:01.843Z,39.90
2023-04-21T00:31:01.619Z,41.20
2023-04-21T00:32:01.585Z,38.00
2023-04-21T00:33:01.594Z,39.90
2023-04-21T00:34:01.574Z,36.40
2023-04-21T00:35:01.507Z,38.00
2023-04-21T00:36:01.505Z,38.30
2023-04-21T00:37:01.719Z,41.80
2023-04-21T00:38:01.621Z,38.60
2023-04-21T00:39:01.534Z,39.00
2023-04-21T00:40:01.558Z,38.30
2023-04-21T00:41:01.468Z,40.40
2023-04-21T00:42:01.905Z,42.00
2023-04-21T00:43:01.548Z,39.90
2023-04-21T00:44:01.606Z,41.00
2023-04-21T00:45:01.505Z,36.10
2023-04-21T00:46:01.444Z,38.00
2023-04-21T00:47:01.429Z,37.80
2023-04-21T00:48:01.559Z,38.10
2023-04-21T00:49:01.479Z,38.50
2023-04-21T00:50:01.353Z,40.30
2023-04-21T00:51:01.395Z,38.10
2023-04-21T00:52:01.747Z,37.20
2023-04-21T00:53:01.467Z,42.50
2023-04-21T00:54:01.247Z,37.50
2023-04-21T00:55:01.475Z,39.10
2023-04-21T00:56:01.287Z,40.60
2023-04-21T00:57:02.856Z,37.80
2023-04-21T00:58:01.325Z,38.50
2023-04-21T00:59:01.337Z,38.80
2023-04-21T01:00:01.327Z,39.00
2023-04-21T01:01:01.295Z,38.20
2023-04-21T01:02:01.500Z,36.30
2023-04-21T01:03:01.686Z,37.80
2023-04-21T01:04:01.768Z,38.10
2023-04-21T01:05:01.664Z,40.40
2023-04-21T01:06:01.660Z,39.10
2023-04-21T01:07:01.205Z,38.10
2023-04-21T01:08:01.197Z,41.60
2023-04-21T01:09:01.242Z,37.30
2023-04-21T01:10:01.233Z,32.90
2023-04-21T01:11:01.473Z,36.10
2023-04-21T01:12:01.976Z,36.30
2023-04-21T01:13:01.457Z,38.50
2023-04-21T01:14:01.375Z,37.30
2023-04-21T01:15:01.391Z,35.30
2023-04-21T01:16:01.331Z,38.00
2023-04-21T01:17:02.056Z,35.80
2023-04-21T01:18:01.446Z,38.70
2023-04-21T01:19:01.302Z,38.30
2023-04-21T01:20:01.103Z,36.40
2023-04-21T01:21:01.028Z,36.80
2023-04-21T01:22:01.183Z,37.70
2023-04-21T01:23:01.182Z,38.10
2023-04-21T01:24:01.330Z,34.60
2023-04-21T01:25:00.936Z,35.90
2023-04-21T01:26:00.991Z,36.40
2023-04-21T01:27:01.017Z,37.60
2023-04-21T01:28:00.911Z,38.20
2023-04-21T01:29:01.017Z,36.20
2023-04-21T01:30:00.960Z,37.40
2023-04-21T01:31:00.884Z,35.80
2023-04-21T01:32:00.923Z,37.00
2023-04-21T01:33:00.856Z,37.10
2023-04-21T01:34:00.900Z,34.10
2023-04-21T01:35:00.885Z,35.30
2023-04-21T01:36:00.830Z,39.70
2023-04-21T01:37:01.032Z,34.50
2023-04-21T01:38:00.805Z,35.90
2023-04-21T01:39:00.842Z,38.10
2023-04-21T01:40:00.851Z,37.90
2023-04-21T01:41:00.894Z,43.30
2023-04-21T01:42:00.786Z,36.40
2023-04-21T01:43:00.809Z,36.50
2023-04-21T01:44:00.794Z,40.10
2023-04-21T01:45:00.782Z,40.70
2023-04-21T01:46:00.749Z,41.30
2023-04-21T01:47:00.767Z,36.30
2023-04-21T01:48:00.837Z,40.60
2023-04-21T01:49:00.761Z,40.90
2023-04-21T01:50:01.242Z,39.20
2023-04-21T01:51:00.702Z,38.30
2023-04-21T01:52:00.695Z,40.70
2023-04-21T01:53:00.979Z,42.00
2023-04-21T01:54:00.639Z,42.00
2023-04-21T01:55:34.932Z,43.10
2023-04-21T01:56:00.729Z,40.30
2023-04-21T01:59:57.320Z,45.60
2023-04-21T02:01:31.201Z,41.80
2023-04-21T02:01:58.610Z,39.30
2023-04-21T02:03:32.169Z,39.80
2023-04-21T02:03:58.696Z,44.60
2023-04-21T02:04:58.530Z,42.60
2023-04-21T02:05:58.485Z,43.70
2023-04-21T02:06:58.447Z,44.30
2023-04-21T02:07:58.609Z,39.60
2023-04-21T02:08:58.530Z,42.00
2023-04-21T02:09:58.427Z,44.10
2023-04-21T02:10:58.363Z,41.80
2023-04-21T02:11:58.450Z,44.10
2023-04-21T02:12:58.383Z,45.00
2023-04-21T02:13:58.420Z,44.50
2023-04-21T02:14:58.388Z,45.20
2023-04-21T02:16:12.167Z,39.00
2023-04-21T02:17:00.317Z,41.60
2023-04-21T02:17:58.474Z,43.90
2023-04-21T02:18:58.307Z,49.40
2023-04-21T02:19:58.259Z,42.50
2023-04-21T02:20:58.341Z,42.30
2023-04-21T02:21:58.302Z,40.20
2023-04-21T02:22:58.250Z,45.30
2023-04-21T02:23:58.353Z,41.70
2023-04-21T02:24:59.303Z,46.80
2023-04-21T02:25:58.244Z,44.10
2023-04-21T02:26:58.241Z,43.00
2023-04-21T02:27:58.183Z,43.30
2023-04-21T02:28:58.355Z,49.60
2023-04-21T02:29:58.255Z,43.20
2023-04-21T02:30:58.244Z,43.70
2023-04-21T02:32:05.181Z,44.10
2023-04-21T02:33:00.221Z,44.30
2023-04-21T02:33:58.116Z,43.40
2023-04-21T02:34:58.090Z,44.80
2023-04-21T02:35:58.410Z,45.60
2023-04-21T02:36:58.309Z,45.60
2023-04-21T02:37:58.099Z,47.00
2023-04-21T02:38:58.238Z,45.00
2023-04-21T02:39:58.069Z,45.00
2023-04-21T02:40:58.163Z,43.90
2023-04-21T02:41:58.052Z,44.50
2023-04-21T02:42:57.993Z,43.20
2023-04-21T02:43:58.107Z,41.10
2023-04-21T02:44:58.108Z,43.70
2023-04-21T02:45:58.160Z,41.70
2023-04-21T02:46:58.154Z,43.00
2023-04-21T02:47:58.010Z,43.60
2023-04-21T02:48:57.989Z,41.90
2023-04-21T02:49:58.004Z,43.80
2023-04-21T02:50:58.386Z,44.90
2023-04-21T02:51:57.952Z,44.50
2023-04-21T02:52:58.028Z,40.70
2023-04-21T02:53:57.937Z,39.40
2023-04-21T02:54:57.976Z,44.00
2023-04-21T02:55:58.026Z,45.10
2023-04-21T02:56:58.003Z,40.90
2023-04-21T02:57:58.102Z,43.50
2023-04-21T02:58:57.948Z,41.90
2023-04-21T02:59:57.917Z,47.00
2023-04-21T03:00:58.209Z,45.20
2023-04-21T03:01:57.864Z,42.70
2023-04-21T03:02:58.121Z,44.50
2023-04-21T03:03:57.900Z,43.40
2023-04-21T03:04:57.731Z,43.00
2023-04-21T03:05:57.732Z,45.30
2023-04-21T03:06:57.691Z,44.90
2023-04-21T03:07:57.807Z,45.60
2023-04-21T03:08:57.690Z,45.30
2023-04-21T03:09:57.673Z,47.10
2023-04-21T03:10:57.655Z,46.30
2023-04-21T03:11:57.630Z,50.60
2023-04-21T03:12:58.234Z,44.20
2023-04-21T03:13:57.625Z,46.00
2023-04-21T03:14:57.731Z,45.70
2023-04-21T03:15:57.611Z,47.20
2023-04-21T03:16:57.955Z,45.20
2023-04-21T03:17:57.682Z,45.10
2023-04-21T03:18:57.619Z,47.90
2023-04-21T03:19:57.707Z,44.20
2023-04-21T03:20:57.601Z,42.20
2023-04-21T03:21:57.611Z,44.60
2023-04-21T03:22:57.601Z,46.20
2023-04-21T03:23:57.540Z,49.30
2023-04-21T03:24:57.559Z,45.50
2023-04-21T03:25:57.536Z,46.50
2023-04-21T03:26:57.546Z,41.80
2023-04-21T03:27:57.487Z,43.50
2023-04-21T03:28:57.500Z,44.30
2023-04-21T03:29:57.531Z,48.50
2023-04-21T03:30:57.451Z,41.80
2023-04-21T03:31:57.546Z,41.80
2023-04-21T03:32:57.600Z,49.10
2023-04-21T03:33:57.502Z,46.00
2023-04-21T03:34:57.476Z,42.50
2023-04-21T03:35:57.407Z,44.70
2023-04-21T03:36:57.592Z,45.40
2023-04-21T03:37:57.359Z,45.10
2023-04-21T03:38:59.089Z,46.70
2023-04-21T03:39:59.396Z,43.80
2023-04-21T03:40:57.409Z,45.30
2023-04-21T03:41:57.463Z,44.10
2023-04-21T03:42:57.320Z,45.40
2023-04-21T03:43:57.358Z,44.50
2023-04-21T03:44:57.365Z,46.80
2023-04-21T03:45:57.380Z,45.80
2023-04-21T03:46:57.333Z,46.20
2023-04-21T03:47:57.359Z,43.60
2023-04-21T03:48:57.334Z,47.50
2023-04-21T03:49:57.341Z,43.60
2023-04-21T03:50:57.394Z,48.00
2023-04-21T03:51:57.284Z,49.50
2023-04-21T03:52:57.234Z,46.90
2023-04-21T03:53:57.194Z,49.00
2023-04-21T03:54:57.202Z,49.20
2023-04-21T03:55:57.196Z,49.10
2023-04-21T03:56:57.219Z,47.40
2023-04-21T03:57:57.173Z,44.50
2023-04-21T03:58:57.167Z,46.00
2023-04-21T03:59:57.191Z,48.80
2023-04-21T04:00:57.149Z,46.40
2023-04-21T04:01:57.203Z,43.60
2023-04-21T04:02:57.243Z,47.70
2023-04-21T04:03:57.314Z,43.40
2023-04-21T04:04:57.137Z,44.60
2023-04-21T04:05:57.071Z,45.20
2023-04-21T04:06:57.104Z,45.40
2023-04-21T04:07:57.074Z,45.90
2023-04-21T04:08:57.055Z,43.20
2023-04-21T04:09:57.078Z,44.20
2023-04-21T04:10:57.098Z,42.80
2023-04-21T04:11:57.063Z,45.10
2023-04-21T04:12:57.029Z,41.50
2023-04-21T04:13:57.000Z,45.40
2023-04-21T04:14:57.017Z,42.40
2023-04-21T04:15:56.977Z,44.10
2023-04-21T04:16:56.950Z,46.50
2023-04-21T04:17:57.014Z,43.20
2023-04-21T04:18:56.990Z,46.90
2023-04-21T04:19:56.945Z,47.20
2023-04-21T04:20:56.975Z,44.50
2023-04-21T04:21:57.077Z,45.50
2023-04-21T04:22:56.911Z,46.70
2023-04-21T04:23:56.880Z,46.40
2023-04-21T04:24:57.157Z,52.10
2023-04-21T04:25:56.859Z,46.20
2023-04-21T04:26:56.834Z,43.40
2023-04-21T04:27:56.914Z,46.00
2023-04-21T04:28:56.889Z,48.00
2023-04-21T04:29:56.897Z,44.30
2023-04-21T04:30:56.882Z,48.40
2023-04-21T04:31:56.769Z,44.20
2023-04-21T04:32:56.856Z,44.70
2023-04-21T04:33:57.789Z,43.40
2023-04-21T04:34:56.860Z,44.70
2023-04-21T04:35:56.737Z,42.40
2023-04-21T04:36:56.736Z,48.10
2023-04-21T04:37:56.804Z,46.60
2023-04-21T04:38:56.725Z,44.90
2023-04-21T04:39:56.684Z,47.00
2023-04-21T04:40:56.709Z,44.60
2023-04-21T04:41:56.723Z,42.80
2023-04-21T04:42:56.681Z,47.30
2023-04-21T04:43:58.360Z,47.60
2023-04-21T04:44:56.725Z,44.20
2023-04-21T04:45:56.676Z,52.40
2023-04-21T04:46:56.734Z,44.10
2023-04-21T04:47:56.661Z,47.00
2023-04-21T04:48:56.632Z,45.60
2023-04-21T04:49:56.618Z,44.90
2023-04-21T04:50:56.576Z,47.20
2023-04-21T04:51:56.603Z,45.30
2023-04-21T04:52:56.607Z,40.70
2023-04-21T04:53:56.602Z,44.80
2023-04-21T04:54:56.618Z,40.90
2023-04-21T04:55:56.560Z,41.80
2023-04-21T04:56:56.531Z,44.30
2023-04-21T04:57:56.500Z,46.10
2023-04-21T04:58:56.530Z,45.60
2023-04-21T04:59:56.521Z,42.30
2023-04-21T05:00:56.549Z,42.60
2023-04-21T05:01:56.572Z,38.90
2023-04-21T05:02:56.589Z,45.30
2023-04-21T05:03:56.595Z,42.10
2023-04-21T05:04:56.690Z,39.40
2023-04-21T05:05:56.467Z,40.50
2023-04-21T05:06:56.453Z,42.20
2023-04-21T05:07:56.433Z,41.50
2023-04-21T05:08:56.456Z,40.60
2023-04-21T05:09:56.430Z,37.70
2023-04-21T05:10:56.552Z,38.40
2023-04-21T05:11:56.410Z,40.60
2023-04-21T05:12:56.350Z,41.20
2023-04-21T05:13:56.347Z,39.40
2023-04-21T05:14:56.363Z,35.80
2023-04-21T05:15:56.346Z,39.70
2023-04-21T05:16:56.364Z,40.70
2023-04-21T05:17:56.290Z,35.30
2023-04-21T05:18:56.335Z,36.40
2023-04-21T05:19:56.321Z,35.30
2023-04-21T05:20:56.253Z,35.80
2023-04-21T05:21:56.302Z,37.00
2023-04-21T05:22:56.291Z,85.40
2023-04-21T05:23:56.228Z,36.40
2023-04-21T05:24:57.269Z,42.20
2023-04-21T05:25:56.236Z,38.10
2023-04-21T05:26:56.189Z,39.60
2023-04-21T05:27:56.175Z,41.00
2023-04-21T05:28:56.186Z,36.40
2023-04-21T05:29:56.210Z,35.00
2023-04-21T05:30:56.245Z,35.80
2023-04-21T05:31:56.236Z,36.70
2023-04-21T05:32:56.243Z,33.50
2023-04-21T05:33:56.176Z,34.60
2023-04-21T05:34:56.942Z,38.80
2023-04-21T05:35:56.103Z,37.90
2023-04-21T05:36:56.088Z,31.80
2023-04-21T05:37:56.073Z,35.50
2023-04-21T05:38:56.047Z,34.20
2023-04-21T05:39:56.197Z,33.30
2023-04-21T05:40:56.070Z,35.00
2023-04-21T05:41:56.061Z,37.80
2023-04-21T05:42:56.017Z,39.10
2023-04-21T05:43:56.002Z,38.70
2023-04-21T05:44:56.041Z,35.90
2023-04-21T05:45:56.039Z,35.00
2023-04-21T05:46:55.992Z,37.70
2023-04-21T05:47:56.027Z,36.00
2023-04-21T05:48:55.950Z,34.10
2023-04-21T05:49:55.981Z,37.30
2023-04-21T05:50:55.932Z,35.60
2023-04-21T05:51:55.932Z,37.70
2023-04-21T05:52:55.885Z,33.90
2023-04-21T05:53:55.918Z,38.80
2023-04-21T05:54:55.878Z,34.30
2023-04-21T05:55:55.862Z,37.70
2023-04-21T05:56:55.899Z,37.80
2023-04-21T05:57:55.875Z,38.20
2023-04-21T05:58:55.881Z,38.90
2023-04-21T05:59:55.830Z,35.70
2023-04-21T06:00:55.900Z,34.50
2023-04-21T06:01:55.845Z,36.60
2023-04-21T06:02:55.850Z,35.00
2023-04-21T06:03:56.048Z,42.80
2023-04-21T06:04:55.860Z,36.60
2023-04-21T06:05:56.499Z,39.00
2023-04-21T06:06:56.002Z,35.50
2023-04-21T06:07:56.261Z,38.90
2023-04-21T06:08:55.780Z,34.90
2023-04-21T06:09:55.729Z,32.70
2023-04-21T06:10:55.871Z,37.70
2023-04-21T06:11:56.202Z,38.80
2023-04-21T06:12:55.747Z,34.30
2023-04-21T06:13:55.712Z,41.90
2023-04-21T06:14:56.022Z,39.30
2023-04-21T06:15:55.879Z,35.40
2023-04-21T06:16:55.675Z,39.20
2023-04-21T06:17:56.062Z,36.10
2023-04-21T06:18:55.780Z,41.30
2023-04-21T06:19:55.626Z,41.00
2023-04-21T06:20:55.909Z,38.00
2023-04-21T06:21:55.633Z,39.20
2023-04-21T06:22:55.621Z,37.70
2023-04-21T06:23:55.879Z,39.70
2023-04-21T06:24:55.819Z,39.30
2023-04-21T06:25:55.574Z,40.70
2023-04-21T06:26:55.672Z,39.40
2023-04-21T06:27:55.768Z,34.00
2023-04-21T06:28:56.666Z,33.90
2023-04-21T06:29:55.549Z,35.60
2023-04-21T06:30:56.699Z,39.80
2023-04-21T06:31:55.547Z,37.00
2023-04-21T06:32:56.023Z,35.20
2023-04-21T06:33:55.592Z,33.70
2023-04-21T06:34:55.508Z,37.60
2023-04-21T06:35:56.490Z,38.00
2023-04-21T06:36:55.912Z,35.80
2023-04-21T06:37:55.957Z,34.20
2023-04-21T06:38:56.000Z,38.40
2023-04-21T06:39:56.072Z,34.80
2023-04-21T06:40:55.627Z,36.90
2023-04-21T06:41:55.651Z,37.70
2023-04-21T06:42:56.610Z,34.30
2023-04-21T06:43:55.958Z,42.20
2023-04-21T06:44:55.655Z,37.70
2023-04-21T06:45:55.477Z,35.70
2023-04-21T06:46:55.509Z,36.60
2023-04-21T06:47:55.300Z,37.40
2023-04-21T06:48:55.980Z,36.30
2023-04-21T06:49:56.128Z,35.50
2023-04-21T06:50:56.636Z,36.10
2023-04-21T06:51:55.204Z,37.60
2023-04-21T06:52:57.481Z,33.90
2023-04-21T06:53:55.326Z,38.10
2023-04-21T06:54:55.306Z,34.00
2023-04-21T06:55:55.257Z,38.50
2023-04-21T06:56:55.230Z,37.00
2023-04-21T06:57:55.777Z,38.90
2023-04-21T06:58:55.738Z,38.00
2023-04-21T06:59:55.303Z,44.80
2023-04-21T07:01:30.055Z,36.70
2023-04-21T07:01:55.135Z,33.70
2023-04-21T07:02:55.638Z,34.30
2023-04-21T07:03:55.874Z,33.00
2023-04-21T07:04:55.181Z,32.50
2023-04-21T07:05:55.267Z,36.70
2023-04-21T07:06:55.322Z,33.80
2023-04-21T07:07:55.054Z,33.40
2023-04-21T07:08:55.188Z,37.60
2023-04-21T07:09:55.195Z,33.30
2023-04-21T07:10:55.091Z,29.10
2023-04-21T07:11:55.076Z,34.60
2023-04-21T07:12:55.147Z,32.40
2023-04-21T07:13:55.123Z,30.90
2023-04-21T07:14:55.020Z,32.40
2023-04-21T07:15:55.049Z,32.10
2023-04-21T07:16:55.196Z,33.10
2023-04-21T07:17:55.054Z,34.70
2023-04-21T07:18:56.849Z,31.20
2023-04-21T07:19:55.959Z,31.80
2023-04-21T07:20:54.974Z,33.00
2023-04-21T07:21:54.890Z,29.00
2023-04-21T07:22:54.892Z,37.80
2023-04-21T07:23:54.850Z,33.50
2023-04-21T07:24:54.856Z,33.00
2023-04-21T07:25:54.850Z,31.20
2023-04-21T07:26:57.029Z,33.00
2023-04-21T07:27:55.337Z,34.20
2023-04-21T07:28:55.249Z,32.30
2023-04-21T07:29:54.901Z,41.30
2023-04-21T07:30:54.904Z,31.80
2023-04-21T07:31:54.937Z,40.00
2023-04-21T07:32:54.820Z,36.80
2023-04-21T07:33:55.919Z,35.40
2023-04-21T07:34:54.930Z,34.10
2023-04-21T07:35:54.805Z,33.50
2023-04-21T07:36:55.015Z,33.30
2023-04-21T07:37:54.840Z,32.00
2023-04-21T07:38:55.494Z,29.90
2023-04-21T07:39:55.404Z,30.90
2023-04-21T07:40:54.785Z,33.60
2023-04-21T07:41:54.840Z,33.00
2023-04-21T07:42:54.875Z,29.60
2023-04-21T07:43:54.775Z,33.00
2023-04-21T07:44:54.809Z,32.00
2023-04-21T07:45:54.620Z,33.40
2023-04-21T07:46:55.593Z,33.50
2023-04-21T07:47:55.829Z,27.60
2023-04-21T07:48:54.704Z,26.90
2023-04-21T07:49:55.103Z,24.30
2023-04-21T07:50:54.634Z,30.10
2023-04-21T07:51:54.734Z,29.00
2023-04-21T07:52:54.626Z,23.90
2023-04-21T07:53:54.672Z,29.00
2023-04-21T07:54:54.637Z,28.30
2023-04-21T07:55:54.585Z,28.30
2023-04-21T07:56:54.808Z,29.10
2023-04-21T07:57:54.551Z,25.70
2023-04-21T07:58:54.974Z,24.20
2023-04-21T08:03:37.552Z,27.80
2023-04-21T08:03:54.997Z,21.50
2023-04-21T08:04:55.812Z,22.70
2023-04-21T08:05:54.795Z,22.50
2023-04-21T08:06:54.679Z,23.80
2023-04-21T08:07:55.753Z,21.40
2023-04-21T08:08:55.037Z,23.60
2023-04-21T08:09:54.373Z,21.20
2023-04-21T08:10:54.452Z,20.70
2023-04-21T08:11:54.408Z,23.00
2023-04-21T08:12:55.454Z,26.70
2023-04-21T08:13:54.867Z,25.40
2023-04-21T08:14:55.089Z,24.40
2023-04-21T08:15:54.757Z,22.40
2023-04-21T08:16:56.723Z,19.40
2023-04-21T08:17:55.369Z,22.90
2023-04-21T08:18:54.681Z,20.90
2023-04-21T08:19:54.595Z,22.00
2023-04-21T08:20:54.470Z,20.50
2023-04-21T08:21:55.276Z,19.90
2023-04-21T08:22:54.463Z,20.60
2023-04-21T08:23:55.258Z,20.70
2023-04-21T08:24:54.417Z,21.30
2023-04-21T08:25:54.293Z,23.70
2023-04-21T08:26:55.089Z,18.30
2023-04-21T08:27:54.163Z,20.80
2023-04-21T08:28:54.464Z,20.90
2023-04-21T08:29:54.259Z,23.40
2023-04-21T08:31:28.375Z,20.80
2023-04-21T08:31:54.475Z,25.20
2023-04-21T08:33:29.154Z,23.50
2023-04-21T08:34:01.320Z,19.40
2023-04-21T08:34:56.354Z,17.50
2023-04-21T08:36:02.882Z,19.20
2023-04-21T08:36:56.313Z,20.10
2023-04-21T08:37:54.135Z,19.40
2023-04-21T08:38:54.866Z,19.10
2023-04-21T08:39:54.232Z,19.30
2023-04-21T08:40:54.023Z,16.60
2023-04-21T08:41:54.037Z,20.00
2023-04-21T08:42:54.032Z,27.10
2023-04-21T08:43:54.091Z,18.40
2023-04-21T08:44:54.034Z,17.00
2023-04-21T08:45:53.975Z,19.10
2023-04-21T08:46:53.977Z,20.70
2023-04-21T08:47:53.970Z,20.00
2023-04-21T08:48:55.379Z,20.90
2023-04-21T08:49:53.950Z,19.50
2023-04-21T08:50:53.973Z,22.80
2023-04-21T08:51:53.936Z,18.80
2023-04-21T08:52:53.912Z,22.80
2023-04-21T08:53:53.934Z,20.30
2023-04-21T08:54:53.923Z,21.30
2023-04-21T08:56:07.669Z,24.10
2023-04-21T08:57:08.055Z,18.80
2023-04-21T08:57:55.875Z,22.80
2023-04-21T08:58:53.859Z,25.10
2023-04-21T08:59:53.893Z,20.20
2023-04-21T09:00:53.858Z,23.20
2023-04-21T09:01:53.895Z,20.80
2023-04-21T09:03:00.041Z,25.20
2023-04-21T09:03:55.855Z,22.80
2023-04-21T09:04:53.964Z,22.50
2023-04-21T09:05:54.137Z,19.20
2023-04-21T09:06:53.910Z,23.90
2023-04-21T09:07:53.735Z,23.40
2023-04-21T09:08:53.758Z,23.70
2023-04-21T09:09:53.767Z,21.70
2023-04-21T09:10:55.662Z,18.90
2023-04-21T09:11:53.661Z,21.20
2023-04-21T09:12:53.816Z,23.60
2023-04-21T09:13:53.712Z,17.70
2023-04-21T09:14:53.676Z,21.30
2023-04-21T09:15:53.700Z,18.00
2023-04-21T09:16:53.661Z,21.40
2023-04-21T09:17:53.630Z,17.10
2023-04-21T09:18:53.603Z,24.20
2023-04-21T09:19:53.606Z,18.60
2023-04-21T09:20:54.036Z,17.30
2023-04-21T09:21:54.115Z,20.10
2023-04-21T09:22:53.754Z,22.70
2023-04-21T09:23:53.800Z,19.20
2023-04-21T09:24:53.543Z,19.40
2023-04-21T09:25:53.535Z,17.60
2023-04-21T09:26:53.621Z,18.30
2023-04-21T09:27:53.592Z,23.40
2023-04-21T09:28:53.546Z,22.90
2023-04-21T09:29:53.493Z,21.20
2023-04-21T09:30:53.530Z,19.90
2023-04-21T09:31:53.571Z,19.70
2023-04-21T09:32:53.522Z,19.60
2023-04-21T09:33:58.690Z,19.60
2023-04-21T09:34:55.482Z,20.70
2023-04-21T09:35:53.431Z,21.30
2023-04-21T09:36:53.465Z,18.80
2023-04-21T09:37:53.440Z,17.30
2023-04-21T09:39:05.598Z,18.90
2023-04-21T09:40:04.828Z,17.60
2023-04-21T09:40:55.405Z,19.40
2023-04-21T09:41:53.430Z,16.80
2023-04-21T09:42:53.385Z,18.80
2023-04-21T09:43:54.019Z,20.50
2023-04-21T09:45:05.846Z,13.80
2023-04-21T09:45:55.349Z,20.00
2023-04-21T09:46:53.347Z,17.60
2023-04-21T09:47:54.454Z,19.40
2023-04-21T09:48:53.321Z,18.60
2023-04-21T09:49:53.526Z,14.20
2023-04-21T09:51:22.893Z,14.80
2023-04-21T09:52:17.729Z,14.10
2023-04-21T09:52:55.330Z,18.20
2023-04-21T09:53:54.238Z,16.00
2023-04-21T09:54:53.292Z,15.70
2023-04-21T09:56:28.148Z,13.60
2023-04-21T09:56:53.407Z,16.80
2023-04-21T09:57:53.304Z,14.00
2023-04-21T09:58:53.274Z,17.00
2023-04-21T09:59:53.208Z,15.90
2023-04-21T10:00:53.252Z,15.90
2023-04-21T10:01:53.210Z,13.70
2023-04-21T10:02:53.291Z,16.20
2023-04-21T10:03:54.180Z,15.30
2023-04-21T10:04:53.614Z,13.70
2023-04-21T10:05:54.179Z,14.40
2023-04-21T10:06:53.100Z,15.40
2023-04-21T10:07:53.167Z,14.90
2023-04-21T10:08:53.070Z,13.80
2023-04-21T10:09:54.164Z,13.50
2023-04-21T10:10:53.106Z,12.00
2023-04-21T10:11:53.070Z,17.40
2023-04-21T10:12:53.070Z,12.30
2023-04-21T10:13:53.085Z,14.00
2023-04-21T10:14:53.040Z,14.00
2023-04-21T10:15:54.207Z,15.00
2023-04-21T10:16:53.066Z,14.30
2023-04-21T10:17:53.063Z,13.80
2023-04-21T10:18:53.017Z,21.10
2023-04-21T10:19:53.055Z,13.00
2023-04-21T10:20:53.016Z,14.30
2023-04-21T10:21:52.954Z,13.30
2023-04-21T10:22:52.960Z,20.20
2023-04-21T10:23:52.944Z,12.20
2023-04-21T10:24:53.677Z,14.50
2023-04-21T10:25:52.997Z,14.70
2023-04-21T10:26:55.016Z,14.30
2023-04-21T10:27:53.931Z,13.30
2023-04-21T10:28:52.860Z,17.20
2023-04-21T10:29:57.005Z,13.90
2023-04-21T10:30:53.932Z,13.20
2023-04-21T10:31:52.966Z,13.80
2023-04-21T10:32:52.889Z,15.70
2023-04-21T10:33:52.826Z,12.00
2023-04-21T10:34:52.806Z,15.40
2023-04-21T10:35:52.819Z,17.30
2023-04-21T10:36:52.817Z,14.70
2023-04-21T10:37:52.835Z,14.40
2023-04-21T10:38:52.813Z,17.40
2023-04-21T10:39:52.741Z,15.40
2023-04-21T10:40:52.767Z,14.30
2023-04-21T10:41:52.751Z,18.40
2023-04-21T10:42:52.720Z,12.80
2023-04-21T10:43:52.732Z,16.60
2023-04-21T10:44:52.733Z,12.70
2023-04-21T10:45:52.681Z,13.60
2023-04-21T10:46:52.906Z,13.60
2023-04-21T10:47:52.724Z,14.20
2023-04-21T10:48:52.904Z,11.70
2023-04-21T10:49:52.686Z,16.20
2023-04-21T10:50:52.644Z,16.40
2023-04-21T10:51:52.627Z,12.00
2023-04-21T10:52:52.650Z,12.70
2023-04-21T10:53:52.620Z,14.90
2023-04-21T10:54:52.632Z,16.90
2023-04-21T10:55:52.568Z,13.10
2023-04-21T10:56:52.585Z,13.20
2023-04-21T10:57:52.680Z,18.20
2023-04-21T10:58:52.575Z,13.60
2023-04-21T10:59:52.550Z,12.70
2023-04-21T11:00:52.713Z,14.50
2023-04-21T11:01:52.595Z,17.70
2023-04-21T11:02:52.784Z,13.80
2023-04-21T11:03:52.721Z,12.30
2023-04-21T11:04:52.659Z,12.60
2023-04-21T11:05:52.540Z,14.40
2023-04-21T11:06:52.502Z,12.50
2023-04-21T11:07:52.505Z,16.30
2023-04-21T11:08:52.514Z,15.40
2023-04-21T11:09:52.441Z,12.90
2023-04-21T11:10:52.507Z,13.60
2023-04-21T11:11:52.457Z,14.80
2023-04-21T11:12:52.432Z,17.70
2023-04-21T11:13:52.419Z,18.30
2023-04-21T11:14:52.430Z,14.90
2023-04-21T11:15:52.371Z,12.50
2023-04-21T11:16:52.413Z,13.20
2023-04-21T11:17:52.388Z,16.30
2023-04-21T11:18:52.377Z,18.00
2023-04-21T11:19:54.232Z,14.30
2023-04-21T11:20:53.370Z,18.80
2023-04-21T11:21:52.349Z,17.40
2023-04-21T11:22:52.473Z,14.50
2023-04-21T11:23:52.386Z,13.90
2023-04-21T11:24:52.299Z,13.70
2023-04-21T11:25:52.260Z,16.80
2023-04-21T11:26:52.279Z,18.50
2023-04-21T11:27:52.293Z,19.20
2023-04-21T11:28:52.248Z,16.40
2023-04-21T11:29:52.293Z,17.20
2023-04-21T11:30:52.268Z,16.20
2023-04-21T11:31:52.268Z,14.10
2023-04-21T11:32:52.237Z,16.80
2023-04-21T11:33:52.236Z,17.00
2023-04-21T11:34:52.226Z,12.10
2023-04-21T11:35:52.199Z,12.60
2023-04-21T11:36:52.393Z,11.20
2023-04-21T11:37:52.201Z,15.30
2023-04-21T11:38:52.167Z,13.40
2023-04-21T11:39:52.111Z,14.80
2023-04-21T11:40:52.152Z,11.30
2023-04-21T11:41:52.131Z,15.80
2023-04-21T11:42:52.082Z,14.00
2023-04-21T11:43:52.111Z,13.20
2023-04-21T11:44:52.094Z,14.00
2023-04-21T11:45:52.134Z,17.70
2023-04-21T11:46:52.100Z,14.90
2023-04-21T11:47:52.208Z,13.80
2023-04-21T11:48:52.052Z,13.80
2023-04-21T11:49:52.036Z,13.80
2023-04-21T11:50:52.010Z,15.50
2023-04-21T11:51:52.023Z,12.60
2023-04-21T11:52:51.986Z,12.60
2023-04-21T11:53:51.992Z,11.90
2023-04-21T11:54:51.970Z,12.40
2023-04-21T11:55:51.991Z,14.40
2023-04-21T11:56:52.021Z,16.50
2023-04-21T11:57:51.948Z,16.00
2023-04-21T11:58:52.666Z,13.50
2023-04-21T11:59:51.919Z,14.70
2023-04-21T12:00:52.164Z,13.90
2023-04-21T12:01:51.938Z,12.00
2023-04-21T12:02:52.115Z,15.40
2023-04-21T12:03:52.213Z,11.60
2023-04-21T12:04:52.122Z,12.50
2023-04-21T12:05:51.850Z,14.20
2023-04-21T12:06:51.889Z,9.30
2023-04-21T12:07:51.887Z,10.40
2023-04-21T12:08:51.809Z,10.60
2023-04-21T12:09:51.810Z,20.80
2023-04-21T12:10:51.981Z,14.60
2023-04-21T12:11:51.919Z,16.00
2023-04-21T12:12:51.904Z,13.10
2023-04-21T12:13:51.816Z,13.70
2023-04-21T12:14:51.755Z,14.00
2023-04-21T12:15:51.767Z,15.40
2023-04-21T12:16:51.934Z,16.00
2023-04-21T12:17:51.843Z,13.40
2023-04-21T12:18:51.754Z,15.80
2023-04-21T12:19:51.731Z,14.70
2023-04-21T12:20:51.689Z,15.20
2023-04-21T12:21:51.693Z,14.30
2023-04-21T12:22:51.773Z,12.30
2023-04-21T12:23:52.556Z,14.70
2023-04-21T12:24:52.627Z,16.60
2023-04-21T12:25:51.635Z,12.00
2023-04-21T12:26:51.639Z,15.90
2023-04-21T12:27:51.696Z,16.10
2023-04-21T12:28:51.597Z,13.20
2023-04-21T12:29:51.590Z,14.40
2023-04-21T12:30:51.575Z,13.10
2023-04-21T12:31:51.591Z,19.60
2023-04-21T12:32:51.602Z,15.10
2023-04-21T12:33:51.711Z,15.20
2023-04-21T12:34:51.579Z,12.50
2023-04-21T12:35:51.548Z,13.20
2023-04-21T12:36:52.497Z,15.10
2023-04-21T12:37:51.541Z,19.90
2023-04-21T12:38:51.605Z,13.30
2023-04-21T12:39:51.582Z,13.90
2023-04-21T12:40:51.514Z,14.90
2023-04-21T12:41:52.165Z,11.90
2023-04-21T12:42:51.505Z,15.60
2023-04-21T12:43:51.467Z,18.20
2023-04-21T12:44:51.472Z,16.30
2023-04-21T12:45:51.433Z,14.00
2023-04-21T12:46:51.456Z,14.00
2023-04-21T12:47:51.472Z,13.40
2023-04-21T12:48:51.424Z,15.50
2023-04-21T12:49:51.358Z,15.20
2023-04-21T12:50:51.393Z,11.40
2023-04-21T12:51:51.383Z,13.80
2023-04-21T12:52:51.419Z,22.50
2023-04-21T12:53:51.441Z,14.70
2023-04-21T12:54:51.342Z,15.20
2023-04-21T12:56:03.370Z,14.00
2023-04-21T12:56:53.538Z,13.40
2023-04-21T12:57:51.293Z,13.30